sensor_id;sensor_type;location;lat;lon;timestamp;temperature;humidity
15257;DHT22;7731;50.720;6.912;2023-02-11T00:00:56;6.10;99.90
15257;DHT22;7731;50.720;6.912;2023-02-11T00:03:26;6.10;99.90
15257;DHT22;7731;50.720;6.912;2023-02-11T00:05:57;6.10;99.90
15257;DHT22;7731;50.720;6.912;2023-02-11T00:08:28;6.10;99.90
15257;DHT22;7731;50.720;6.912;2023-02-11T00:10:58;6.10;99.90
15257;DHT22;7731;50.720;6.912;2023-02-11T00:13:31;6.10;99.90
15257;DHT22;7731;50.720;6.912;2023-02-11T00:16:05;6.10;99.90
15257;DHT22;7731;50.720;6.912;2023-02-11T00:18:36;6.10;99.90
15257;DHT22;7731;50.720;6.912;2023-02-11T00:21:08;6.00;99.90
15257;DHT22;7731;50.720;6.912;2023-02-11T00:23:39;5.90;99.90
15257;DHT22;7731;50.720;6.912;2023-02-11T00:26:13;5.80;99.90
15257;DHT22;7731;50.720;6.912;2023-02-11T00:28:48;5.80;99.90
15257;DHT22;7731;50.720;6.912;2023-02-11T00:31:21;5.70;99.90
15257;DHT22;7731;50.720;6.912;2023-02-11T00:33:53;5.60;99.90
15257;DHT22;7731;50.720;6.912;2023-02-11T00:36:25;5.60;99.90
15257;DHT22;7731;50.720;6.912;2023-02-11T00:38:58;5.60;99.90
15257;DHT22;7731;50.720;6.912;2023-02-11T00:41:29;5.70;99.90
15257;DHT22;7731;50.720;6.912;2023-02-11T00:44:02;5.80;99.90
15257;DHT22;7731;50.720;6.912;2023-02-11T00:46:35;5.60;99.90
15257;DHT22;7731;50.720;6.912;2023-02-11T00:49:05;5.60;99.90
15257;DHT22;7731;50.720;6.912;2023-02-11T00:51:35;5.50;99.90
15257;DHT22;7731;50.720;6.912;2023-02-11T00:54:06;5.40;99.90
15257;DHT22;7731;50.720;6.912;2023-02-11T00:56:37;5.40;99.90
15257;DHT22;7731;50.720;6.912;2023-02-11T00:59:13;5.30;99.90
15257;DHT22;7731;50.720;6.912;2023-02-11T01:01:43;5.20;99.90
15257;DHT22;7731;50.720;6.912;2023-02-11T01:04:13;5.10;99.90
15257;DHT22;7731;50.720;6.912;2023-02-11T01:06:43;5.00;99.90
15257;DHT22;7731;50.720;6.912;2023-02-11T01:09:15;5.00;99.90
15257;DHT22;7731;50.720;6.912;2023-02-11T01:11:49;4.90;99.90
15257;DHT22;7731;50.720;6.912;2023-02-11T01:14:22;4.80;99.90
15257;DHT22;7731;50.720;6.912;2023-02-11T01:16:52;4.80;99.90
15257;DHT22;7731;50.720;6.912;2023-02-11T01:19:22;4.90;99.90
15257;DHT22;7731;50.720;6.912;2023-02-11T01:21:52;5.00;99.90
15257;DHT22;7731;50.720;6.912;2023-02-11T01:24:23;5.00;99.90
15257;DHT22;7731;50.720;6.912;2023-02-11T01:26:53;4.90;99.90
15257;DHT22;7731;50.720;6.912;2023-02-11T01:29:28;4.90;99.90
15257;DHT22;7731;50.720;6.912;2023-02-11T01:31:59;4.90;99.90
15257;DHT22;7731;50.720;6.912;2023-02-11T01:34:30;4.90;99.90
15257;DHT22;7731;50.720;6.912;2023-02-11T01:37:00;4.90;99.90
15257;DHT22;7731;50.720;6.912;2023-02-11T01:39:32;4.80;99.90
15257;DHT22;7731;50.720;6.912;2023-02-11T01:42:05;4.80;99.90
15257;DHT22;7731;50.720;6.912;2023-02-11T01:44:38;4.90;99.90
15257;DHT22;7731;50.720;6.912;2023-02-11T01:47:09;4.80;99.90
15257;DHT22;7731;50.720;6.912;2023-02-11T01:49:42;4.70;99.90
15257;DHT22;7731;50.720;6.912;2023-02-11T01:52:20;4.60;99.90
15257;DHT22;7731;50.720;6.912;2023-02-11T01:54:58;4.50;99.90
15257;DHT22;7731;50.720;6.912;2023-02-11T01:57:46;4.40;99.90
15257;DHT22;7731;50.720;6.912;2023-02-11T02:00:28;4.30;99.90
15257;DHT22;7731;50.720;6.912;2023-02-11T02:03:05;4.20;99.90
15257;DHT22;7731;50.720;6.912;2023-02-11T02:05:46;4.10;99.90
15257;DHT22;7731;50.720;6.912;2023-02-11T02:08:24;4.10;99.90
15257;DHT22;7731;50.720;6.912;2023-02-11T02:11:00;4.20;99.90
15257;DHT22;7731;50.720;6.912;2023-02-11T02:13:33;4.20;99.90
15257;DHT22;7731;50.720;6.912;2023-02-11T02:16:10;4.20;99.90
15257;DHT22;7731;50.720;6.912;2023-02-11T02:18:47;4.20;99.90
15257;DHT22;7731;50.720;6.912;2023-02-11T02:25:04;4.10;99.90
15257;DHT22;7731;50.720;6.912;2023-02-11T02:28:01;4.10;99.90
15257;DHT22;7731;50.720;6.912;2023-02-11T02:31:21;4.00;99.90
15257;DHT22;7731;50.720;6.912;2023-02-11T02:34:22;3.90;99.90
15257;DHT22;7731;50.720;6.912;2023-02-11T02:37:07;3.80;99.90
15257;DHT22;7731;50.720;6.912;2023-02-11T02:39:42;3.70;99.90
15257;DHT22;7731;50.720;6.912;2023-02-11T02:42:18;3.70;99.90
15257;DHT22;7731;50.720;6.912;2023-02-11T02:44:50;3.70;99.90
15257;DHT22;7731;50.720;6.912;2023-02-11T02:47:22;3.70;99.90
15257;DHT22;7731;50.720;6.912;2023-02-11T02:49:54;3.80;99.90
15257;DHT22;7731;50.720;6.912;2023-02-11T02:52:34;3.90;99.90
15257;DHT22;7731;50.720;6.912;2023-02-11T02:55:25;4.00;99.90
15257;DHT22;7731;50.720;6.912;2023-02-11T02:58:30;4.00;99.90
15257;DHT22;7731;50.720;6.912;2023-02-11T03:01:37;3.80;99.90
15257;DHT22;7731;50.720;6.912;2023-02-11T03:04:19;3.70;99.90
15257;DHT22;7731;50.720;6.912;2023-02-11T03:07:02;3.80;99.90
15257;DHT22;7731;50.720;6.912;2023-02-11T03:09:41;3.80;99.90
15257;DHT22;7731;50.720;6.912;2023-02-11T03:12:17;3.80;99.90
15257;DHT22;7731;50.720;6.912;2023-02-11T03:14:51;3.80;99.90
15257;DHT22;7731;50.720;6.912;2023-02-11T03:17:22;3.80;99.90
15257;DHT22;7731;50.720;6.912;2023-02-11T03:19:56;3.70;99.90
15257;DHT22;7731;50.720;6.912;2023-02-11T03:22:34;3.60;99.90
15257;DHT22;7731;50.720;6.912;2023-02-11T03:25:09;3.60;99.90
15257;DHT22;7731;50.720;6.912;2023-02-11T03:27:43;3.80;99.90
15257;DHT22;7731;50.720;6.912;2023-02-11T03:30:24;3.80;99.90
15257;DHT22;7731;50.720;6.912;2023-02-11T03:33:04;3.70;99.90
15257;DHT22;7731;50.720;6.912;2023-02-11T03:35:40;3.60;99.90
15257;DHT22;7731;50.720;6.912;2023-02-11T03:38:21;3.50;99.90
15257;DHT22;7731;50.720;6.912;2023-02-11T03:40:57;3.40;99.90
15257;DHT22;7731;50.720;6.912;2023-02-11T03:43:32;3.30;99.90
15257;DHT22;7731;50.720;6.912;2023-02-11T03:46:07;3.20;99.90
15257;DHT22;7731;50.720;6.912;2023-02-11T03:48:40;3.30;99.90
15257;DHT22;7731;50.720;6.912;2023-02-11T03:51:15;3.40;99.90
15257;DHT22;7731;50.720;6.912;2023-02-11T03:53:48;3.20;99.90
15257;DHT22;7731;50.720;6.912;2023-02-11T03:56:30;3.00;99.90
15257;DHT22;7731;50.720;6.912;2023-02-11T03:59:04;3.00;99.90
15257;DHT22;7731;50.720;6.912;2023-02-11T04:01:34;2.90;99.90
15257;DHT22;7731;50.720;6.912;2023-02-11T04:04:05;2.90;99.90
15257;DHT22;7731;50.720;6.912;2023-02-11T04:06:35;2.90;99.90
15257;DHT22;7731;50.720;6.912;2023-02-11T04:09:09;3.00;99.90
15257;DHT22;7731;50.720;6.912;2023-02-11T04:11:40;2.90;99.90
15257;DHT22;7731;50.720;6.912;2023-02-11T04:14:10;2.90;99.90
15257;DHT22;7731;50.720;6.912;2023-02-11T04:16:40;2.90;99.90
15257;DHT22;7731;50.720;6.912;2023-02-11T04:19:11;3.00;99.90
15257;DHT22;7731;50.720;6.912;2023-02-11T04:21:41;2.90;99.90
15257;DHT22;7731;50.720;6.912;2023-02-11T04:24:13;2.90;99.90
15257;DHT22;7731;50.720;6.912;2023-02-11T04:26:44;2.90;99.90
15257;DHT22;7731;50.720;6.912;2023-02-11T04:29:14;2.90;99.90
15257;DHT22;7731;50.720;6.912;2023-02-11T04:31:44;2.90;99.90
15257;DHT22;7731;50.720;6.912;2023-02-11T04:34:15;3.10;99.90
15257;DHT22;7731;50.720;6.912;2023-02-11T04:36:45;3.10;99.90
15257;DHT22;7731;50.720;6.912;2023-02-11T04:39:18;3.20;99.90
15257;DHT22;7731;50.720;6.912;2023-02-11T04:41:49;3.20;99.90
15257;DHT22;7731;50.720;6.912;2023-02-11T04:44:19;3.20;99.90
15257;DHT22;7731;50.720;6.912;2023-02-11T04:46:49;3.20;99.90
15257;DHT22;7731;50.720;6.912;2023-02-11T04:49:20;3.20;99.90
15257;DHT22;7731;50.720;6.912;2023-02-11T04:51:50;3.20;99.90
15257;DHT22;7731;50.720;6.912;2023-02-11T04:54:25;3.30;99.90
15257;DHT22;7731;50.720;6.912;2023-02-11T04:56:55;3.40;99.90
15257;DHT22;7731;50.720;6.912;2023-02-11T04:59:25;3.60;99.90
15257;DHT22;7731;50.720;6.912;2023-02-11T05:01:55;3.80;99.90
15257;DHT22;7731;50.720;6.912;2023-02-11T05:04:25;3.80;99.90
15257;DHT22;7731;50.720;6.912;2023-02-11T05:06:56;3.90;99.90
15257;DHT22;7731;50.720;6.912;2023-02-11T05:09:28;3.90;99.90
15257;DHT22;7731;50.720;6.912;2023-02-11T05:11:58;4.00;99.90
15257;DHT22;7731;50.720;6.912;2023-02-11T05:14:28;4.10;99.90
15257;DHT22;7731;50.720;6.912;2023-02-11T05:16:59;4.20;99.90
15257;DHT22;7731;50.720;6.912;2023-02-11T05:19:29;4.20;99.90
15257;DHT22;7731;50.720;6.912;2023-02-11T05:21:59;4.30;99.90
15257;DHT22;7731;50.720;6.912;2023-02-11T05:24:33;4.30;99.90
15257;DHT22;7731;50.720;6.912;2023-02-11T05:27:03;4.30;99.90
15257;DHT22;7731;50.720;6.912;2023-02-11T05:29:33;4.40;99.90
15257;DHT22;7731;50.720;6.912;2023-02-11T05:32:04;4.40;99.90
15257;DHT22;7731;50.720;6.912;2023-02-11T05:34:34;4.40;99.90
15257;DHT22;7731;50.720;6.912;2023-02-11T05:37:05;4.50;99.90
15257;DHT22;7731;50.720;6.912;2023-02-11T05:39:45;4.50;99.90
15257;DHT22;7731;50.720;6.912;2023-02-11T05:42:16;4.70;99.90
15257;DHT22;7731;50.720;6.912;2023-02-11T05:44:46;4.70;99.90
15257;DHT22;7731;50.720;6.912;2023-02-11T05:47:16;4.80;99.90
15257;DHT22;7731;50.720;6.912;2023-02-11T05:49:46;4.90;99.90
15257;DHT22;7731;50.720;6.912;2023-02-11T05:52:16;4.80;99.90
15257;DHT22;7731;50.720;6.912;2023-02-11T05:54:49;4.80;99.90
15257;DHT22;7731;50.720;6.912;2023-02-11T05:57:19;4.90;99.90
15257;DHT22;7731;50.720;6.912;2023-02-11T05:59:50;4.80;99.90
15257;DHT22;7731;50.720;6.912;2023-02-11T06:02:20;4.80;99.90
15257;DHT22;7731;50.720;6.912;2023-02-11T06:04:50;4.90;99.90
15257;DHT22;7731;50.720;6.912;2023-02-11T06:07:20;5.10;99.90
15257;DHT22;7731;50.720;6.912;2023-02-11T06:09:53;5.20;99.90
15257;DHT22;7731;50.720;6.912;2023-02-11T06:12:23;5.10;99.90
15257;DHT22;7731;50.720;6.912;2023-02-11T06:14:54;5.00;99.90
15257;DHT22;7731;50.720;6.912;2023-02-11T06:17:24;5.00;99.90
15257;DHT22;7731;50.720;6.912;2023-02-11T06:19:57;5.00;99.90
15257;DHT22;7731;50.720;6.912;2023-02-11T06:22:29;5.20;99.90
15257;DHT22;7731;50.720;6.912;2023-02-11T06:25:04;5.20;99.90
15257;DHT22;7731;50.720;6.912;2023-02-11T06:27:35;5.10;99.90
15257;DHT22;7731;50.720;6.912;2023-02-11T06:30:06;5.10;99.90
15257;DHT22;7731;50.720;6.912;2023-02-11T06:32:38;5.20;99.90
15257;DHT22;7731;50.720;6.912;2023-02-11T06:35:11;5.40;99.90
15257;DHT22;7731;50.720;6.912;2023-02-11T06:37:41;5.30;99.90
15257;DHT22;7731;50.720;6.912;2023-02-11T06:40:20;5.20;99.90
15257;DHT22;7731;50.720;6.912;2023-02-11T06:42:54;5.20;99.90
15257;DHT22;7731;50.720;6.912;2023-02-11T06:45:24;5.10;99.90
15257;DHT22;7731;50.720;6.912;2023-02-11T06:47:54;5.10;99.90
15257;DHT22;7731;50.720;6.912;2023-02-11T06:50:27;5.10;99.90
15257;DHT22;7731;50.720;6.912;2023-02-11T06:52:57;5.10;99.90
15257;DHT22;7731;50.720;6.912;2023-02-11T06:55:30;5.10;99.90
15257;DHT22;7731;50.720;6.912;2023-02-11T06:58:05;5.20;99.90
15257;DHT22;7731;50.720;6.912;2023-02-11T07:00:36;5.20;99.90
15257;DHT22;7731;50.720;6.912;2023-02-11T07:03:07;5.20;99.90
15257;DHT22;7731;50.720;6.912;2023-02-11T07:05:41;5.20;99.90
15257;DHT22;7731;50.720;6.912;2023-02-11T07:08:11;5.20;99.90
15257;DHT22;7731;50.720;6.912;2023-02-11T07:10:44;5.20;99.90
15257;DHT22;7731;50.720;6.912;2023-02-11T07:13:17;5.30;99.90
15257;DHT22;7731;50.720;6.912;2023-02-11T07:15:47;5.30;99.90
15257;DHT22;7731;50.720;6.912;2023-02-11T07:18:18;5.40;99.90
15257;DHT22;7731;50.720;6.912;2023-02-11T07:20:54;5.30;99.90
15257;DHT22;7731;50.720;6.912;2023-02-11T07:23:24;5.40;99.90
15257;DHT22;7731;50.720;6.912;2023-02-11T07:25:56;5.40;99.90
15257;DHT22;7731;50.720;6.912;2023-02-11T07:28:27;5.60;99.90
15257;DHT22;7731;50.720;6.912;2023-02-11T07:30:57;5.60;99.90
15257;DHT22;7731;50.720;6.912;2023-02-11T07:33:27;5.60;99.90
15257;DHT22;7731;50.720;6.912;2023-02-11T07:35:59;5.70;99.90
15257;DHT22;7731;50.720;6.912;2023-02-11T07:38:30;5.70;99.90
15257;DHT22;7731;50.720;6.912;2023-02-11T07:41:06;5.60;99.90
15257;DHT22;7731;50.720;6.912;2023-02-11T07:43:38;5.60;99.90
15257;DHT22;7731;50.720;6.912;2023-02-11T07:46:10;5.70;99.90
15257;DHT22;7731;50.720;6.912;2023-02-11T07:48:42;5.60;99.90
15257;DHT22;7731;50.720;6.912;2023-02-11T07:51:14;5.60;99.90
15257;DHT22;7731;50.720;6.912;2023-02-11T07:53:45;5.60;99.90
15257;DHT22;7731;50.720;6.912;2023-02-11T07:56:20;5.60;99.90
15257;DHT22;7731;50.720;6.912;2023-02-11T07:58:51;5.60;99.90
15257;DHT22;7731;50.720;6.912;2023-02-11T08:01:23;5.60;99.90
15257;DHT22;7731;50.720;6.912;2023-02-11T08:03:56;5.60;99.90
15257;DHT22;7731;50.720;6.912;2023-02-11T08:06:29;5.60;99.90
15257;DHT22;7731;50.720;6.912;2023-02-11T08:09:04;5.50;99.90
15257;DHT22;7731;50.720;6.912;2023-02-11T08:11:38;5.70;99.90
15257;DHT22;7731;50.720;6.912;2023-02-11T08:14:09;5.70;99.90
15257;DHT22;7731;50.720;6.912;2023-02-11T08:16:40;5.80;99.90
15257;DHT22;7731;50.720;6.912;2023-02-11T08:19:13;5.80;99.90
15257;DHT22;7731;50.720;6.912;2023-02-11T08:21:44;5.80;99.90
15257;DHT22;7731;50.720;6.912;2023-02-11T08:24:15;5.80;99.90
15257;DHT22;7731;50.720;6.912;2023-02-11T08:26:48;5.90;99.90
15257;DHT22;7731;50.720;6.912;2023-02-11T08:29:18;6.00;99.90
15257;DHT22;7731;50.720;6.912;2023-02-11T08:31:48;6.00;99.90
15257;DHT22;7731;50.720;6.912;2023-02-11T08:34:19;6.00;99.90
15257;DHT22;7731;50.720;6.912;2023-02-11T08:36:49;6.00;99.90
15257;DHT22;7731;50.720;6.912;2023-02-11T08:39:21;6.00;99.90
15257;DHT22;7731;50.720;6.912;2023-02-11T08:41:54;6.00;99.90
15257;DHT22;7731;50.720;6.912;2023-02-11T08:44:25;5.90;99.90
15257;DHT22;7731;50.720;6.912;2023-02-11T08:46:55;6.00;99.90
15257;DHT22;7731;50.720;6.912;2023-02-11T08:49:25;6.00;99.90
15257;DHT22;7731;50.720;6.912;2023-02-11T08:51:56;6.10;99.90
15257;DHT22;7731;50.720;6.912;2023-02-11T08:54:30;6.10;99.90
15257;DHT22;7731;50.720;6.912;2023-02-11T08:57:03;6.20;99.90
15257;DHT22;7731;50.720;6.912;2023-02-11T08:59:34;6.30;99.90
15257;DHT22;7731;50.720;6.912;2023-02-11T09:02:08;6.40;99.90
15257;DHT22;7731;50.720;6.912;2023-02-11T09:04:41;6.40;99.90
15257;DHT22;7731;50.720;6.912;2023-02-11T09:07:11;6.30;99.90
15257;DHT22;7731;50.720;6.912;2023-02-11T09:09:41;6.40;99.90
15257;DHT22;7731;50.720;6.912;2023-02-11T09:12:14;6.40;99.90
15257;DHT22;7731;50.720;6.912;2023-02-11T09:14:44;6.40;99.90
15257;DHT22;7731;50.720;6.912;2023-02-11T09:17:15;6.40;99.90
15257;DHT22;7731;50.720;6.912;2023-02-11T09:19:45;6.40;99.90
15257;DHT22;7731;50.720;6.912;2023-02-11T09:22:15;6.30;99.90
15257;DHT22;7731;50.720;6.912;2023-02-11T09:24:46;6.30;99.90
15257;DHT22;7731;50.720;6.912;2023-02-11T09:27:19;6.40;99.90
15257;DHT22;7731;50.720;6.912;2023-02-11T09:29:49;6.40;99.90
15257;DHT22;7731;50.720;6.912;2023-02-11T09:32:19;6.30;99.90
15257;DHT22;7731;50.720;6.912;2023-02-11T09:34:49;6.30;99.90
15257;DHT22;7731;50.720;6.912;2023-02-11T09:37:20;6.30;99.90
15257;DHT22;7731;50.720;6.912;2023-02-11T09:39:50;6.30;99.90
15257;DHT22;7731;50.720;6.912;2023-02-11T09:42:38;6.30;99.90
15257;DHT22;7731;50.720;6.912;2023-02-11T09:45:16;6.30;99.90
15257;DHT22;7731;50.720;6.912;2023-02-11T09:47:53;6.40;99.90
15257;DHT22;7731;50.720;6.912;2023-02-11T09:50:29;6.50;99.90
15257;DHT22;7731;50.720;6.912;2023-02-11T09:53:05;6.60;99.90
15257;DHT22;7731;50.720;6.912;2023-02-11T09:55:42;6.60;99.90
15257;DHT22;7731;50.720;6.912;2023-02-11T09:58:22;6.70;99.90
15257;DHT22;7731;50.720;6.912;2023-02-11T10:01:01;6.80;99.90
15257;DHT22;7731;50.720;6.912;2023-02-11T10:04:01;6.80;99.90
15257;DHT22;7731;50.720;6.912;2023-02-11T10:06:41;6.90;99.90
15257;DHT22;7731;50.720;6.912;2023-02-11T10:09:34;6.90;99.90
15257;DHT22;7731;50.720;6.912;2023-02-11T10:12:25;6.90;99.90
15257;DHT22;7731;50.720;6.912;2023-02-11T10:15:23;6.90;99.90
15257;DHT22;7731;50.720;6.912;2023-02-11T10:18:28;6.90;99.90
15257;DHT22;7731;50.720;6.912;2023-02-11T10:21:17;7.10;99.90
15257;DHT22;7731;50.720;6.912;2023-02-11T10:23:58;7.10;99.90
15257;DHT22;7731;50.720;6.912;2023-02-11T10:26:32;7.10;99.90
15257;DHT22;7731;50.720;6.912;2023-02-11T10:29:25;7.20;99.90
15257;DHT22;7731;50.720;6.912;2023-02-11T10:32:14;7.30;99.90
15257;DHT22;7731;50.720;6.912;2023-02-11T10:35:02;7.50;99.90
15257;DHT22;7731;50.720;6.912;2023-02-11T10:37:41;7.70;99.90
15257;DHT22;7731;50.720;6.912;2023-02-11T10:40:15;7.80;99.90
15257;DHT22;7731;50.720;6.912;2023-02-11T10:42:48;7.90;99.90
15257;DHT22;7731;50.720;6.912;2023-02-11T10:45:26;8.00;99.90
15257;DHT22;7731;50.720;6.912;2023-02-11T10:48:05;8.10;99.90
15257;DHT22;7731;50.720;6.912;2023-02-11T10:51:07;8.20;99.90
15257;DHT22;7731;50.720;6.912;2023-02-11T10:53:44;8.20;99.90
15257;DHT22;7731;50.720;6.912;2023-02-11T10:56:31;8.20;99.90
15257;DHT22;7731;50.720;6.912;2023-02-11T10:59:06;8.30;99.90
15257;DHT22;7731;50.720;6.912;2023-02-11T11:01:52;8.30;99.90
15257;DHT22;7731;50.720;6.912;2023-02-11T11:04:38;8.40;99.90
15257;DHT22;7731;50.720;6.912;2023-02-11T11:07:14;8.40;99.90
15257;DHT22;7731;50.720;6.912;2023-02-11T11:09:50;8.60;99.90
15257;DHT22;7731;50.720;6.912;2023-02-11T11:12:25;8.60;99.90
15257;DHT22;7731;50.720;6.912;2023-02-11T11:14:59;8.50;99.90
15257;DHT22;7731;50.720;6.912;2023-02-11T11:17:31;8.40;99.90
15257;DHT22;7731;50.720;6.912;2023-02-11T11:20:30;8.30;99.90
15257;DHT22;7731;50.720;6.912;2023-02-11T11:23:15;8.30;99.90
15257;DHT22;7731;50.720;6.912;2023-02-11T11:26:00;8.20;99.90
15257;DHT22;7731;50.720;6.912;2023-02-11T11:28:37;8.10;99.90
15257;DHT22;7731;50.720;6.912;2023-02-11T11:31:15;8.20;99.90
15257;DHT22;7731;50.720;6.912;2023-02-11T11:34:20;8.10;99.90
15257;DHT22;7731;50.720;6.912;2023-02-11T11:37:20;8.00;99.90
15257;DHT22;7731;50.720;6.912;2023-02-11T11:39:57;8.00;99.90
15257;DHT22;7731;50.720;6.912;2023-02-11T11:42:33;7.90;99.90
15257;DHT22;7731;50.720;6.912;2023-02-11T11:45:23;7.90;99.90
15257;DHT22;7731;50.720;6.912;2023-02-11T11:47:58;7.80;99.90
15257;DHT22;7731;50.720;6.912;2023-02-11T11:50:34;7.70;99.90
15257;DHT22;7731;50.720;6.912;2023-02-11T11:53:17;7.70;99.90
15257;DHT22;7731;50.720;6.912;2023-02-11T11:55:56;7.70;99.90
15257;DHT22;7731;50.720;6.912;2023-02-11T11:58:32;7.80;99.90
15257;DHT22;7731;50.720;6.912;2023-02-11T12:01:33;7.90;99.90
15257;DHT22;7731;50.720;6.912;2023-02-11T12:04:38;7.90;99.90
15257;DHT22;7731;50.720;6.912;2023-02-11T12:07:30;8.00;99.90
15257;DHT22;7731;50.720;6.912;2023-02-11T12:10:34;8.00;99.90
15257;DHT22;7731;50.720;6.912;2023-02-11T12:16:26;8.00;99.90
15257;DHT22;7731;50.720;6.912;2023-02-11T12:19:23;8.10;99.90
15257;DHT22;7731;50.720;6.912;2023-02-11T12:22:21;8.10;99.90
15257;DHT22;7731;50.720;6.912;2023-02-11T12:25:20;8.10;99.90
15257;DHT22;7731;50.720;6.912;2023-02-11T12:28:18;8.10;99.90
15257;DHT22;7731;50.720;6.912;2023-02-11T12:31:20;8.10;99.90
15257;DHT22;7731;50.720;6.912;2023-02-11T12:34:39;8.10;99.90
15257;DHT22;7731;50.720;6.912;2023-02-11T12:37:30;8.10;99.90
15257;DHT22;7731;50.720;6.912;2023-02-11T12:40:15;8.10;99.90
15257;DHT22;7731;50.720;6.912;2023-02-11T12:43:04;8.00;99.90
15257;DHT22;7731;50.720;6.912;2023-02-11T12:49:13;8.10;99.90
15257;DHT22;7731;50.720;6.912;2023-02-11T12:52:18;8.10;99.90
15257;DHT22;7731;50.720;6.912;2023-02-11T12:55:01;8.20;99.90
15257;DHT22;7731;50.720;6.912;2023-02-11T12:57:40;8.30;99.90
15257;DHT22;7731;50.720;6.912;2023-02-11T13:00:21;8.20;99.90
15257;DHT22;7731;50.720;6.912;2023-02-11T13:02:58;8.20;99.90
15257;DHT22;7731;50.720;6.912;2023-02-11T13:05:39;8.20;99.90
15257;DHT22;7731;50.720;6.912;2023-02-11T13:08:19;8.10;99.90
15257;DHT22;7731;50.720;6.912;2023-02-11T13:10:56;8.20;99.90
15257;DHT22;7731;50.720;6.912;2023-02-11T13:13:34;8.20;99.90
15257;DHT22;7731;50.720;6.912;2023-02-11T13:16:25;8.10;99.90
15257;DHT22;7731;50.720;6.912;2023-02-11T13:19:13;8.00;99.90
15257;DHT22;7731;50.720;6.912;2023-02-11T13:22:05;8.00;99.90
15257;DHT22;7731;50.720;6.912;2023-02-11T13:24:42;8.00;99.90
15257;DHT22;7731;50.720;6.912;2023-02-11T13:27:24;7.90;99.90
15257;DHT22;7731;50.720;6.912;2023-02-11T13:30:25;7.90;99.90
15257;DHT22;7731;50.720;6.912;2023-02-11T13:33:16;7.80;99.90
15257;DHT22;7731;50.720;6.912;2023-02-11T13:36:26;7.90;99.90
15257;DHT22;7731;50.720;6.912;2023-02-11T13:39:01;8.00;99.90
15257;DHT22;7731;50.720;6.912;2023-02-11T13:41:39;7.90;99.90
15257;DHT22;7731;50.720;6.912;2023-02-11T13:44:22;7.90;99.90
15257;DHT22;7731;50.720;6.912;2023-02-11T13:46:59;7.90;99.90
15257;DHT22;7731;50.720;6.912;2023-02-11T13:49:35;7.90;99.90
15257;DHT22;7731;50.720;6.912;2023-02-11T13:52:20;7.80;99.90
15257;DHT22;7731;50.720;6.912;2023-02-11T13:54:57;7.80;99.90
15257;DHT22;7731;50.720;6.912;2023-02-11T13:57:39;7.90;99.90
15257;DHT22;7731;50.720;6.912;2023-02-11T14:03:26;7.90;99.90
15257;DHT22;7731;50.720;6.912;2023-02-11T14:06:29;7.90;99.90
15257;DHT22;7731;50.720;6.912;2023-02-11T14:09:36;7.80;99.90
15257;DHT22;7731;50.720;6.912;2023-02-11T14:12:31;7.90;99.90
15257;DHT22;7731;50.720;6.912;2023-02-11T14:15:19;7.90;99.90
15257;DHT22;7731;50.720;6.912;2023-02-11T14:17:53;7.90;99.90
15257;DHT22;7731;50.720;6.912;2023-02-11T14:20:41;7.80;99.90
15257;DHT22;7731;50.720;6.912;2023-02-11T14:23:24;7.80;99.90
15257;DHT22;7731;50.720;6.912;2023-02-11T14:26:32;7.80;99.90
15257;DHT22;7731;50.720;6.912;2023-02-11T14:29:32;7.80;99.90
15257;DHT22;7731;50.720;6.912;2023-02-11T14:32:22;7.80;99.90
15257;DHT22;7731;50.720;6.912;2023-02-11T14:35:09;7.80;99.90
15257;DHT22;7731;50.720;6.912;2023-02-11T14:37:47;7.80;99.90
15257;DHT22;7731;50.720;6.912;2023-02-11T14:40:33;7.90;99.90
15257;DHT22;7731;50.720;6.912;2023-02-11T14:43:22;7.90;99.90
15257;DHT22;7731;50.720;6.912;2023-02-11T14:45:56;7.90;99.90
15257;DHT22;7731;50.720;6.912;2023-02-11T14:48:33;8.00;99.90
15257;DHT22;7731;50.720;6.912;2023-02-11T14:51:11;8.00;99.90
15257;DHT22;7731;50.720;6.912;2023-02-11T14:53:46;8.10;99.90
15257;DHT22;7731;50.720;6.912;2023-02-11T14:56:25;8.10;99.90
15257;DHT22;7731;50.720;6.912;2023-02-11T14:59:00;8.10;99.90
15257;DHT22;7731;50.720;6.912;2023-02-11T15:01:32;8.10;99.90
15257;DHT22;7731;50.720;6.912;2023-02-11T15:04:22;8.10;99.90
15257;DHT22;7731;50.720;6.912;2023-02-11T15:06:56;8.00;99.90
15257;DHT22;7731;50.720;6.912;2023-02-11T15:09:39;8.00;99.90
15257;DHT22;7731;50.720;6.912;2023-02-11T15:12:19;8.00;99.90
15257;DHT22;7731;50.720;6.912;2023-02-11T15:14:55;8.00;99.90
15257;DHT22;7731;50.720;6.912;2023-02-11T15:17:30;7.90;99.90
15257;DHT22;7731;50.720;6.912;2023-02-11T15:20:02;8.10;99.90
15257;DHT22;7731;50.720;6.912;2023-02-11T15:22:34;8.10;99.90
15257;DHT22;7731;50.720;6.912;2023-02-11T15:25:09;8.10;99.90
15257;DHT22;7731;50.720;6.912;2023-02-11T15:27:47;8.10;99.90
15257;DHT22;7731;50.720;6.912;2023-02-11T15:30:27;8.10;99.90
15257;DHT22;7731;50.720;6.912;2023-02-11T15:33:02;8.10;99.90
15257;DHT22;7731;50.720;6.912;2023-02-11T15:35:37;8.10;99.90
15257;DHT22;7731;50.720;6.912;2023-02-11T15:38:10;8.00;99.90
15257;DHT22;7731;50.720;6.912;2023-02-11T15:40:51;8.00;99.90
15257;DHT22;7731;50.720;6.912;2023-02-11T15:43:39;8.00;99.90
15257;DHT22;7731;50.720;6.912;2023-02-11T15:46:12;8.00;99.90
15257;DHT22;7731;50.720;6.912;2023-02-11T15:48:47;8.00;99.90
15257;DHT22;7731;50.720;6.912;2023-02-11T15:51:22;8.00;99.90
15257;DHT22;7731;50.720;6.912;2023-02-11T15:53:59;7.90;99.90
15257;DHT22;7731;50.720;6.912;2023-02-11T15:56:35;7.90;99.90
15257;DHT22;7731;50.720;6.912;2023-02-11T15:59:16;7.90;99.90
15257;DHT22;7731;50.720;6.912;2023-02-11T16:01:48;7.90;99.90
15257;DHT22;7731;50.720;6.912;2023-02-11T16:04:20;7.90;99.90
15257;DHT22;7731;50.720;6.912;2023-02-11T16:06:54;7.90;99.90
15257;DHT22;7731;50.720;6.912;2023-02-11T16:09:30;7.80;99.90
15257;DHT22;7731;50.720;6.912;2023-02-11T16:12:04;7.90;99.90
15257;DHT22;7731;50.720;6.912;2023-02-11T16:14:55;8.00;99.90
15257;DHT22;7731;50.720;6.912;2023-02-11T16:17:29;8.00;99.90
15257;DHT22;7731;50.720;6.912;2023-02-11T16:19:59;8.10;99.90
15257;DHT22;7731;50.720;6.912;2023-02-11T16:22:30;8.00;99.90
15257;DHT22;7731;50.720;6.912;2023-02-11T16:25:04;8.00;99.90
15257;DHT22;7731;50.720;6.912;2023-02-11T16:27:38;7.90;99.90
15257;DHT22;7731;50.720;6.912;2023-02-11T16:30:22;7.90;99.90
15257;DHT22;7731;50.720;6.912;2023-02-11T16:32:57;7.80;99.90
15257;DHT22;7731;50.720;6.912;2023-02-11T16:35:27;7.70;99.90
15257;DHT22;7731;50.720;6.912;2023-02-11T16:37:57;7.70;99.90
15257;DHT22;7731;50.720;6.912;2023-02-11T16:40:27;7.60;99.90
15257;DHT22;7731;50.720;6.912;2023-02-11T16:42:58;7.60;99.90
15257;DHT22;7731;50.720;6.912;2023-02-11T16:45:36;7.60;99.90
15257;DHT22;7731;50.720;6.912;2023-02-11T16:48:08;7.50;99.90
15257;DHT22;7731;50.720;6.912;2023-02-11T16:50:44;7.50;99.90
15257;DHT22;7731;50.720;6.912;2023-02-11T16:53:22;7.50;99.90
15257;DHT22;7731;50.720;6.912;2023-02-11T16:55:53;7.50;99.90
15257;DHT22;7731;50.720;6.912;2023-02-11T16:58:23;7.50;99.90
15257;DHT22;7731;50.720;6.912;2023-02-11T17:00:56;7.50;99.90
15257;DHT22;7731;50.720;6.912;2023-02-11T17:03:27;7.50;99.90
15257;DHT22;7731;50.720;6.912;2023-02-11T17:06:01;7.50;99.90
15257;DHT22;7731;50.720;6.912;2023-02-11T17:08:36;7.40;99.90
15257;DHT22;7731;50.720;6.912;2023-02-11T17:11:07;7.40;99.90
15257;DHT22;7731;50.720;6.912;2023-02-11T17:13:37;7.40;99.90
15257;DHT22;7731;50.720;6.912;2023-02-11T17:16:16;7.30;99.90
15257;DHT22;7731;50.720;6.912;2023-02-11T17:18:48;7.30;99.90